Time;durP1;ratioP1;P1;durP2;ratioP2;P2;SDS_P1;SDS_P2;PMS_P1;PMS_P2;Temp;Humidity;BMP_temperature;BMP_pressure;BME280_temperature;BME280_humidity;BME280_pressure;Samples;Min_cycle;Max_cycle;Signal;HPM_P1;HPM_P2
2022/10/03 00:00:02;;;;;;;;;;;21.90;99.90;;;;;;5036375;28;19984;-76
2022/10/03 00:02:35;;;;;;;;;;;21.90;99.90;;;;;;5036270;28;20019;-76
2022/10/03 00:05:07;;;;;;;;;;;21.90;99.90;;;;;;5036598;28;19925;-76
2022/10/03 00:08:01;;;;;;;;;;;21.90;99.90;;;;;;5036493;28;20012;-75
2022/10/03 00:10:34;;;;;;;;;;;22.00;99.90;;;;;;5036244;28;20452;-76
2022/10/03 00:13:06;;;;;;;;;;;22.00;99.90;;;;;;5036147;28;20011;-76
2022/10/03 00:15:36;;;;;;;;;;;22.00;99.90;;;;;;5035427;28;19980;-76
2022/10/03 00:18:06;;;;;;;;;;;22.00;99.90;;;;;;5036242;28;19972;-75
2022/10/03 00:20:48;;;;;;;;;;;21.90;99.90;;;;;;5036329;28;19968;-76
2022/10/03 00:23:18;;;;;;;;;;;22.00;99.90;;;;;;5035993;28;20304;-77
2022/10/03 00:25:49;;;;;;;;;;;22.00;99.90;;;;;;5036210;28;19971;-77
2022/10/03 05:20:55;;;;;;;;;;;21.80;99.90;;;;;;5687795;23;19945;-75
2022/10/03 05:23:28;;;;;;;;;;;21.80;99.90;;;;;;5034678;28;20019;-75
2022/10/03 05:26:01;;;;;;;;;;;21.80;99.90;;;;;;5035108;28;19925;-75
2022/10/03 05:28:34;;;;;;;;;;;21.80;99.90;;;;;;5035057;28;20025;-75
2022/10/03 05:31:04;;;;;;;;;;;21.80;99.90;;;;;;5034674;28;19980;-75
2022/10/03 05:33:38;;;;;;;;;;;21.90;99.90;;;;;;5034918;28;20016;-75
2022/10/03 05:36:23;;;;;;;;;;;21.90;99.90;;;;;;5077918;23;19932;-78
2022/10/03 05:39:02;;;;;;;;;;;21.90;99.90;;;;;;5031208;28;19968;-78
2022/10/03 05:41:30;;;;;;;;;;;21.90;99.90;;;;;;5041606;28;19952;-79
2022/10/03 05:44:02;;;;;;;;;;;21.90;99.90;;;;;;5039496;28;20035;-78
2022/10/03 05:46:46;;;;;;;;;;;21.90;99.90;;;;;;5020026;28;20028;-78
2022/10/03 05:49:27;;;;;;;;;;;21.90;99.90;;;;;;5009681;28;20011;-78
2022/10/03 05:52:02;;;;;;;;;;;21.90;99.90;;;;;;5020069;28;19992;-78
2022/10/03 05:54:47;;;;;;;;;;;21.90;99.90;;;;;;5017571;28;19932;-78
2022/10/03 05:57:41;;;;;;;;;;;21.90;99.90;;;;;;5020235;28;19925;-78
2022/10/03 06:00:26;;;;;;;;;;;21.90;99.90;;;;;;4984756;28;20029;-78
2022/10/03 06:03:06;;;;;;;;;;;21.90;99.90;;;;;;5018549;28;19926;-78
2022/10/03 06:05:39;;;;;;;;;;;21.90;99.90;;;;;;5017784;28;20001;-79
2022/10/03 06:08:26;;;;;;;;;;;21.90;99.90;;;;;;5018536;28;19926;-78
2022/10/03 06:10:58;;;;;;;;;;;21.90;99.90;;;;;;5017570;28;20385;-78
2022/10/03 06:13:32;;;;;;;;;;;21.90;99.90;;;;;;5018217;28;19925;-78
2022/10/03 06:16:01;;;;;;;;;;;21.90;99.90;;;;;;5020840;28;20020;-79
2022/10/03 06:18:41;;;;;;;;;;;21.90;99.90;;;;;;5019935;28;20027;-79
2022/10/03 06:21:15;;;;;;;;;;;21.90;99.90;;;;;;5018643;28;20369;-78
2022/10/03 06:24:06;;;;;;;;;;;21.90;99.90;;;;;;5025324;28;20361;-79
2022/10/03 06:26:50;;;;;;;;;;;21.80;99.90;;;;;;4969051;28;20382;-79
2022/10/03 06:29:31;;;;;;;;;;;21.90;99.90;;;;;;5025996;28;19953;-79
2022/10/03 06:32:06;;;;;;;;;;;21.90;99.90;;;;;;5026282;28;20447;-79
2022/10/03 06:34:47;;;;;;;;;;;21.90;99.90;;;;;;5026606;28;19933;-80
2022/10/03 06:37:37;;;;;;;;;;;21.90;99.90;;;;;;5004095;28;20416;-78
2022/10/03 06:40:24;;;;;;;;;;;21.80;99.90;;;;;;5017465;28;20020;-78
2022/10/03 06:42:55;;;;;;;;;;;21.80;99.90;;;;;;5017912;28;20411;-78
2022/10/03 06:45:37;;;;;;;;;;;21.80;99.90;;;;;;5017751;28;19969;-78
2022/10/03 06:48:14;;;;;;;;;;;21.80;99.90;;;;;;5017203;28;19930;-78
2022/10/03 06:50:51;;;;;;;;;;;21.70;99.90;;;;;;5016445;28;20020;-78
2022/10/03 06:53:29;;;;;;;;;;;21.70;99.90;;;;;;5015473;28;20341;-78
2022/10/03 06:56:04;;;;;;;;;;;21.70;99.90;;;;;;5014152;28;20012;-77
2022/10/03 06:58:39;;;;;;;;;;;21.70;99.90;;;;;;5015840;28;20021;-76
2022/10/03 07:01:23;;;;;;;;;;;21.70;99.90;;;;;;5014254;28;19973;-77
2022/10/03 07:04:09;;;;;;;;;;;21.60;99.90;;;;;;5015543;28;20336;-77
2022/10/03 07:06:47;;;;;;;;;;;21.60;99.90;;;;;;5015608;28;19925;-77
2022/10/03 07:09:31;;;;;;;;;;;21.60;99.90;;;;;;5015337;28;20289;-76
2022/10/03 07:12:17;;;;;;;;;;;21.60;99.90;;;;;;5013959;28;20266;-75
2022/10/03 07:14:54;;;;;;;;;;;21.60;99.90;;;;;;5013796;28;20015;-76
2022/10/03 07:17:29;;;;;;;;;;;21.70;99.90;;;;;;5014498;28;19926;-77
2022/10/03 07:20:22;;;;;;;;;;;21.70;99.90;;;;;;5014371;28;20024;-77
2022/10/03 07:23:05;;;;;;;;;;;21.70;99.90;;;;;;5013646;28;20020;-76
2022/10/03 07:25:50;;;;;;;;;;;21.70;99.90;;;;;;5013145;28;19925;-76
2022/10/03 07:28:26;;;;;;;;;;;21.70;99.90;;;;;;5017264;28;20384;-76
2022/10/03 07:31:00;;;;;;;;;;;21.70;99.90;;;;;;5017237;28;20351;-76
2022/10/03 07:33:36;;;;;;;;;;;21.70;99.90;;;;;;5017464;28;20013;-76
2022/10/03 07:39:25;;;;;;;;;;;21.70;99.40;;;;;;5017259;28;20392;-77
2022/10/03 07:41:59;;;;;;;;;;;21.70;99.10;;;;;;5017126;28;20042;-76
2022/10/03 07:44:47;;;;;;;;;;;21.70;98.80;;;;;;5017285;28;19933;-77
2022/10/03 07:47:33;;;;;;;;;;;21.70;98.50;;;;;;5018584;28;19937;-77
2022/10/03 07:50:17;;;;;;;;;;;21.70;98.20;;;;;;5022870;28;20000;-78
2022/10/03 07:52:53;;;;;;;;;;;21.70;97.90;;;;;;5010024;28;19925;-78
2022/10/03 07:55:28;;;;;;;;;;;21.70;97.60;;;;;;5021198;28;19999;-82
2022/10/03 07:58:23;;;;;;;;;;;21.70;97.30;;;;;;5020901;28;19972;-82
2022/10/03 08:00:59;;;;;;;;;;;21.70;97.10;;;;;;4984495;28;19926;-77
2022/10/03 08:03:56;;;;;;;;;;;21.70;96.80;;;;;;5020389;28;20016;-77
2022/10/03 08:06:26;;;;;;;;;;;21.70;96.60;;;;;;4960429;29;19962;-78
2022/10/03 08:08:58;;;;;;;;;;;21.70;96.30;;;;;;5007289;28;20012;-78
2022/10/03 08:11:36;;;;;;;;;;;21.70;96.10;;;;;;5020093;28;20081;-78
2022/10/03 08:14:13;;;;;;;;;;;21.70;96.10;;;;;;5018774;28;19975;-78
2022/10/03 08:16:58;;;;;;;;;;;21.70;95.90;;;;;;5023830;28;20381;-81
2022/10/03 08:19:31;;;;;;;;;;;21.70;95.70;;;;;;5025391;28;19964;-81
2022/10/03 08:22:04;;;;;;;;;;;21.70;95.50;;;;;;5022365;28;20348;-82
2022/10/03 08:24:37;;;;;;;;;;;21.70;95.30;;;;;;5020224;28;20448;-83
2022/10/03 08:27:20;;;;;;;;;;;21.70;95.10;;;;;;5021074;28;20008;-83
2022/10/03 08:30:14;;;;;;;;;;;21.80;95.00;;;;;;5022007;28;19965;-83
2022/10/03 08:32:53;;;;;;;;;;;21.80;94.80;;;;;;5022350;28;19983;-84
2022/10/03 08:35:25;;;;;;;;;;;21.70;94.90;;;;;;5021884;28;19925;-82
2022/10/03 08:38:06;;;;;;;;;;;21.80;94.40;;;;;;5020654;28;19925;-82
2022/10/03 08:40:45;;;;;;;;;;;21.80;94.20;;;;;;5019584;28;19979;-82
2022/10/03 08:43:33;;;;;;;;;;;21.80;94.00;;;;;;5019461;28;20020;-82
2022/10/03 08:46:07;;;;;;;;;;;21.70;93.70;;;;;;4992818;28;20020;-82
2022/10/03 08:48:55;;;;;;;;;;;21.70;93.70;;;;;;5018985;28;20009;-81
2022/10/03 08:51:36;;;;;;;;;;;21.70;93.40;;;;;;5018553;28;19926;-82
2022/10/03 08:54:12;;;;;;;;;;;21.70;93.20;;;;;;5005339;28;19925;-82
2022/10/03 08:56:48;;;;;;;;;;;21.70;93.00;;;;;;5020364;28;19925;-83
2022/10/03 08:59:19;;;;;;;;;;;21.70;92.80;;;;;;5019637;28;20008;-82
2022/10/03 09:02:02;;;;;;;;;;;21.70;92.70;;;;;;5018072;28;19925;-83
2022/10/03 09:04:59;;;;;;;;;;;21.70;92.50;;;;;;5019197;28;19981;-82
2022/10/03 09:07:35;;;;;;;;;;;21.70;92.50;;;;;;4957879;29;19990;-79
2022/10/03 09:10:20;;;;;;;;;;;21.70;92.30;;;;;;5008318;28;19949;-81
2022/10/03 09:13:03;;;;;;;;;;;21.70;92.20;;;;;;5017814;28;19965;-82
2022/10/03 09:15:42;;;;;;;;;;;21.70;92.10;;;;;;5018349;28;19971;-83
2022/10/03 09:18:25;;;;;;;;;;;21.70;92.00;;;;;;5018865;28;20020;-82
2022/10/03 13:52:59;;;;;;;;;;;21.40;66.70;;;;;;6003702;23;21387;-80
2022/10/03 13:55:29;;;;;;;;;;;21.40;66.90;;;;;;5035929;28;19929;-77
2022/10/03 13:58:14;;;;;;;;;;;21.50;67.10;;;;;;5036605;28;19967;-76
2022/10/03 14:00:46;;;;;;;;;;;21.50;67.10;;;;;;5036289;28;19972;-77
2022/10/03 14:03:20;;;;;;;;;;;21.50;67.10;;;;;;5035072;28;20023;-76
2022/10/03 14:06:06;;;;;;;;;;;21.50;67.10;;;;;;5035047;28;19929;-76
2022/10/03 14:08:44;;;;;;;;;;;21.50;67.20;;;;;;5035690;28;19925;-76
2022/10/03 14:11:16;;;;;;;;;;;21.50;67.20;;;;;;5035281;28;20015;-76
2022/10/03 14:14:04;;;;;;;;;;;21.60;67.40;;;;;;5033036;28;20011;-75
2022/10/03 14:16:31;;;;;;;;;;;21.60;67.50;;;;;;5034523;28;19964;-76
2022/10/03 14:19:02;;;;;;;;;;;21.60;67.60;;;;;;5034545;28;19925;-76
2022/10/03 14:21:35;;;;;;;;;;;21.60;67.70;;;;;;5034247;28;19948;-76
2022/10/03 14:24:09;;;;;;;;;;;21.70;68.10;;;;;;5034084;28;20012;-75
2022/10/03 14:26:38;;;;;;;;;;;21.70;68.50;;;;;;5034155;28;20281;-75
2022/10/03 14:29:10;;;;;;;;;;;21.80;69.10;;;;;;5034232;28;19925;-77
2022/10/03 14:31:41;;;;;;;;;;;21.80;69.50;;;;;;5034135;28;20019;-77
2022/10/03 14:34:11;;;;;;;;;;;21.80;69.70;;;;;;5033573;28;20031;-77
2022/10/03 14:36:42;;;;;;;;;;;21.90;69.90;;;;;;5033713;28;20380;-77
2022/10/03 14:39:27;;;;;;;;;;;21.90;70.30;;;;;;5034003;28;20016;-76
2022/10/03 14:42:09;;;;;;;;;;;21.90;70.90;;;;;;5033757;28;19977;-77
2022/10/03 14:44:37;;;;;;;;;;;22.00;71.50;;;;;;5033878;28;20016;-77
2022/10/03 14:47:08;;;;;;;;;;;22.00;72.10;;;;;;5034834;28;19968;-79
2022/10/03 14:49:35;;;;;;;;;;;22.00;72.60;;;;;;5035319;28;20008;-77
2022/10/03 14:52:04;;;;;;;;;;;22.10;73.40;;;;;;5033944;28;19933;-76
2022/10/03 14:54:36;;;;;;;;;;;22.10;73.90;;;;;;5033654;28;20007;-75
2022/10/03 14:57:22;;;;;;;;;;;22.10;74.50;;;;;;5033923;28;19972;-75
2022/10/03 14:59:53;;;;;;;;;;;22.10;75.20;;;;;;5033906;28;20024;-75
2022/10/03 15:02:26;;;;;;;;;;;22.20;76.10;;;;;;5033936;28;19925;-76
2022/10/03 15:04:54;;;;;;;;;;;22.20;76.10;;;;;;5033823;28;19925;-75
2022/10/03 15:07:32;;;;;;;;;;;22.20;76.70;;;;;;5033539;28;20384;-75
2022/10/03 15:09:59;;;;;;;;;;;22.20;77.10;;;;;;5033648;28;20452;-75
2022/10/03 15:12:27;;;;;;;;;;;22.20;77.60;;;;;;5033787;28;19932;-75
2022/10/03 15:14:57;;;;;;;;;;;22.20;78.00;;;;;;5033814;28;19951;-77
2022/10/03 15:17:26;;;;;;;;;;;22.20;78.40;;;;;;5034172;28;19925;-78
2022/10/03 15:19:54;;;;;;;;;;;22.20;78.60;;;;;;5034152;28;20016;-77
2022/10/03 15:22:29;;;;;;;;;;;22.20;78.90;;;;;;5033477;28;19932;-77
2022/10/03 15:24:57;;;;;;;;;;;22.10;79.10;;;;;;5033594;28;19925;-77
2022/10/03 15:27:26;;;;;;;;;;;22.10;79.30;;;;;;5033650;28;20032;-78
2022/10/03 15:29:56;;;;;;;;;;;22.10;79.50;;;;;;5033608;28;20032;-77
2022/10/03 15:32:26;;;;;;;;;;;22.10;79.60;;;;;;5033509;28;19925;-76
2022/10/03 15:34:55;;;;;;;;;;;22.10;79.90;;;;;;5033481;28;19932;-77
2022/10/03 15:37:25;;;;;;;;;;;22.10;80.00;;;;;;5033277;28;19925;-76
2022/10/03 15:39:53;;;;;;;;;;;22.10;80.10;;;;;;5033032;28;19926;-77
2022/10/03 15:42:22;;;;;;;;;;;22.10;80.30;;;;;;5033304;28;20294;-77
2022/10/03 15:44:52;;;;;;;;;;;22.00;80.30;;;;;;5032852;28;19929;-77
2022/10/03 15:47:21;;;;;;;;;;;22.00;80.40;;;;;;5035860;28;19976;-77
2022/10/03 15:49:49;;;;;;;;;;;22.00;80.50;;;;;;5036805;28;20028;-76
2022/10/03 15:52:17;;;;;;;;;;;22.00;80.70;;;;;;5038362;28;20296;-77
2022/10/03 15:54:48;;;;;;;;;;;22.00;81.30;;;;;;5037154;28;20020;-76
2022/10/03 15:57:18;;;;;;;;;;;22.10;81.80;;;;;;5037056;28;20395;-77
2022/10/03 15:59:49;;;;;;;;;;;22.10;81.70;;;;;;5036872;28;20007;-77
2022/10/03 16:02:17;;;;;;;;;;;22.10;81.70;;;;;;5037797;28;20374;-77
2022/10/03 16:04:47;;;;;;;;;;;22.10;82.20;;;;;;5037291;28;19932;-77
2022/10/03 16:07:21;;;;;;;;;;;22.10;82.60;;;;;;5036929;28;19931;-76
2022/10/03 16:09:51;;;;;;;;;;;22.10;83.00;;;;;;5036831;28;20015;-76
2022/10/03 16:12:35;;;;;;;;;;;22.10;83.40;;;;;;5036347;28;20450;-75
2022/10/03 16:15:11;;;;;;;;;;;22.10;83.70;;;;;;5036648;28;19931;-75
2022/10/03 16:17:42;;;;;;;;;;;22.10;84.00;;;;;;5036346;28;20386;-74
2022/10/03 16:20:16;;;;;;;;;;;22.10;84.30;;;;;;5036641;28;19980;-76
2022/10/03 16:22:45;;;;;;;;;;;22.10;84.70;;;;;;5038859;28;20011;-73
2022/10/03 16:25:15;;;;;;;;;;;22.10;85.00;;;;;;5039315;28;19925;-75
2022/10/03 16:27:46;;;;;;;;;;;22.10;85.30;;;;;;5040832;28;20396;-75
2022/10/03 16:30:17;;;;;;;;;;;22.10;85.60;;;;;;5039187;28;19925;-76
2022/10/03 16:32:48;;;;;;;;;;;22.10;85.90;;;;;;5036035;28;19925;-75
2022/10/03 16:35:26;;;;;;;;;;;22.10;86.10;;;;;;5036253;28;19968;-74
2022/10/03 16:37:55;;;;;;;;;;;22.00;86.40;;;;;;5035378;28;20220;-75
2022/10/03 16:40:23;;;;;;;;;;;22.00;86.70;;;;;;5035722;28;20491;-75
2022/10/03 16:42:51;;;;;;;;;;;22.00;87.00;;;;;;5035892;28;19925;-75
2022/10/03 16:45:20;;;;;;;;;;;22.00;87.30;;;;;;5036014;28;20285;-75
2022/10/03 16:50:23;;;;;;;;;;;22.00;87.30;;;;;;5036675;28;19925;-75
2022/10/03 16:50:39;;;;;;;;;;;22.00;87.30;;;;;;5035822;28;19925;-75
2022/10/03 16:53:10;;;;;;;;;;;22.00;87.90;;;;;;5036090;28;19931;-76
2022/10/03 16:55:42;;;;;;;;;;;22.00;88.20;;;;;;5036278;28;19925;-75
2022/10/03 16:58:14;;;;;;;;;;;22.00;88.40;;;;;;5036149;28;20050;-75
2022/10/03 17:00:42;;;;;;;;;;;22.00;88.70;;;;;;5035936;28;20401;-76
2022/10/03 17:03:17;;;;;;;;;;;22.00;89.00;;;;;;5036342;28;19965;-74
2022/10/03 17:05:47;;;;;;;;;;;22.00;89.30;;;;;;5036312;28;20354;-75
2022/10/03 17:08:14;;;;;;;;;;;22.00;89.50;;;;;;5035820;28;19932;-74
2022/10/03 17:10:41;;;;;;;;;;;22.00;89.70;;;;;;5036191;28;20445;-75
2022/10/03 17:13:12;;;;;;;;;;;22.00;90.00;;;;;;5036401;28;20024;-75
2022/10/03 17:15:44;;;;;;;;;;;22.00;90.10;;;;;;5036158;28;20050;-75
2022/10/03 17:18:16;;;;;;;;;;;22.00;90.20;;;;;;5036596;28;20027;-75
2022/10/03 17:20:47;;;;;;;;;;;22.00;90.30;;;;;;5036089;28;20042;-75
2022/10/03 17:23:21;;;;;;;;;;;22.00;90.40;;;;;;5034848;28;19925;-75
2022/10/03 17:25:49;;;;;;;;;;;22.00;90.50;;;;;;5034874;28;20019;-76
2022/10/03 17:28:25;;;;;;;;;;;22.00;90.60;;;;;;5035093;28;20019;-76
2022/10/03 17:30:54;;;;;;;;;;;22.00;90.70;;;;;;5035153;28;20095;-76
2022/10/03 17:33:23;;;;;;;;;;;22.00;90.80;;;;;;5035044;28;20011;-77
2022/10/03 17:36:05;;;;;;;;;;;22.00;90.90;;;;;;5034653;28;20463;-76
2022/10/03 17:38:39;;;;;;;;;;;22.00;91.00;;;;;;5035213;28;19925;-76
2022/10/03 17:41:13;;;;;;;;;;;22.00;91.10;;;;;;5039926;28;19925;-77
2022/10/03 17:43:45;;;;;;;;;;;22.00;91.30;;;;;;5040017;28;20380;-77
2022/10/03 17:46:17;;;;;;;;;;;22.00;91.30;;;;;;5040026;28;19984;-77
2022/10/03 17:48:47;;;;;;;;;;;22.00;91.60;;;;;;5040641;28;19925;-75
2022/10/03 17:51:25;;;;;;;;;;;22.00;91.30;;;;;;5040247;28;19932;-75
2022/10/03 17:53:54;;;;;;;;;;;21.90;91.40;;;;;;5035545;28;19999;-74
2022/10/03 17:56:22;;;;;;;;;;;22.00;91.60;;;;;;5034308;28;20384;-74
2022/10/03 17:58:50;;;;;;;;;;;21.90;91.60;;;;;;5034543;28;20027;-74
2022/10/03 18:01:18;;;;;;;;;;;22.00;92.10;;;;;;5034509;28;19947;-74
2022/10/03 18:03:47;;;;;;;;;;;22.00;91.90;;;;;;5034445;28;19972;-75
2022/10/03 18:06:33;;;;;;;;;;;22.00;92.00;;;;;;5034168;28;20395;-75
2022/10/03 18:09:07;;;;;;;;;;;22.00;92.10;;;;;;5033851;28;19925;-76
2022/10/03 18:11:37;;;;;;;;;;;21.90;92.10;;;;;;5034950;28;20385;-77
2022/10/03 18:14:09;;;;;;;;;;;21.90;92.10;;;;;;5034303;28;20022;-76
2022/10/03 18:16:37;;;;;;;;;;;21.90;92.20;;;;;;5034024;28;19925;-76
2022/10/03 18:19:11;;;;;;;;;;;21.90;92.20;;;;;;5034034;28;19925;-76
2022/10/03 18:21:45;;;;;;;;;;;21.90;92.30;;;;;;5033905;28;20297;-76
2022/10/03 18:24:29;;;;;;;;;;;21.90;92.30;;;;;;5034041;28;19925;-76
2022/10/03 18:27:01;;;;;;;;;;;21.90;92.40;;;;;;5034159;28;19931;-76
2022/10/03 18:29:30;;;;;;;;;;;21.90;92.40;;;;;;5033886;28;20020;-76
2022/10/03 18:31:59;;;;;;;;;;;21.90;92.50;;;;;;5033766;28;20464;-76
2022/10/03 18:34:28;;;;;;;;;;;21.90;92.50;;;;;;5033688;28;20423;-76
2022/10/03 18:36:56;;;;;;;;;;;21.90;92.60;;;;;;5033964;28;20024;-76
2022/10/03 18:39:25;;;;;;;;;;;21.90;92.70;;;;;;5033990;28;19925;-76
2022/10/03 18:41:53;;;;;;;;;;;21.90;92.70;;;;;;5033650;28;19926;-76
2022/10/03 18:44:22;;;;;;;;;;;21.90;92.80;;;;;;5033804;28;20016;-76
2022/10/03 18:46:51;;;;;;;;;;;21.90;92.80;;;;;;5033934;28;19933;-76
2022/10/03 18:49:21;;;;;;;;;;;21.90;92.90;;;;;;5033894;28;20162;-76
2022/10/03 18:51:50;;;;;;;;;;;21.90;93.30;;;;;;5033901;28;19925;-76
2022/10/03 18:54:25;;;;;;;;;;;21.90;93.00;;;;;;5033754;28;19964;-76
2022/10/03 18:57:02;;;;;;;;;;;21.90;93.10;;;;;;5033845;28;19979;-76
2022/10/03 18:59:33;;;;;;;;;;;21.90;93.10;;;;;;5033590;28;20460;-76
2022/10/03 19:02:02;;;;;;;;;;;21.90;93.20;;;;;;5033478;28;20464;-75
2022/10/03 19:04:35;;;;;;;;;;;21.90;93.20;;;;;;5033297;28;20041;-75
2022/10/03 19:07:04;;;;;;;;;;;21.90;93.30;;;;;;5033450;28;20262;-75
2022/10/03 19:09:34;;;;;;;;;;;21.90;93.40;;;;;;5033678;28;19971;-75
2022/10/03 19:12:08;;;;;;;;;;;21.90;93.40;;;;;;5033319;28;20008;-75
2022/10/03 19:14:39;;;;;;;;;;;21.90;93.50;;;;;;5033553;28;20007;-75
2022/10/03 19:17:21;;;;;;;;;;;21.80;93.50;;;;;;5033676;28;20008;-75
2022/10/03 19:19:51;;;;;;;;;;;21.80;93.60;;;;;;5034185;28;20023;-77
2022/10/03 19:22:22;;;;;;;;;;;21.80;93.70;;;;;;5037261;28;20008;-77
2022/10/03 19:24:50;;;;;;;;;;;21.80;93.70;;;;;;5037037;28;20024;-76
2022/10/03 19:27:18;;;;;;;;;;;21.80;93.70;;;;;;5037925;28;20016;-76
2022/10/03 19:29:47;;;;;;;;;;;21.80;93.70;;;;;;5037405;28;20012;-76
2022/10/03 19:32:18;;;;;;;;;;;21.80;93.70;;;;;;5037200;28;20007;-76
2022/10/03 19:34:46;;;;;;;;;;;21.80;93.70;;;;;;5037261;28;20021;-76
2022/10/03 19:37:28;;;;;;;;;;;21.80;93.80;;;;;;5037234;28;19976;-76
2022/10/03 19:39:56;;;;;;;;;;;21.80;93.90;;;;;;5037269;28;19940;-77
2022/10/03 19:42:27;;;;;;;;;;;21.80;94.00;;;;;;5037160;28;19925;-77
2022/10/03 19:44:55;;;;;;;;;;;21.80;94.10;;;;;;5036735;28;19976;-77
2022/10/03 19:47:25;;;;;;;;;;;21.80;94.10;;;;;;5036711;28;20008;-77
2022/10/03 19:49:53;;;;;;;;;;;21.80;94.20;;;;;;5036940;28;20024;-77
2022/10/03 19:52:25;;;;;;;;;;;21.80;94.30;;;;;;5036895;28;20008;-77
2022/10/03 19:54:53;;;;;;;;;;;21.80;94.40;;;;;;5036377;28;20012;-77
2022/10/03 19:57:24;;;;;;;;;;;21.80;94.50;;;;;;5036862;28;20299;-77
2022/10/03 19:59:52;;;;;;;;;;;21.80;94.50;;;;;;5036502;28;20407;-77
2022/10/03 20:02:23;;;;;;;;;;;21.80;94.60;;;;;;5036776;28;20023;-76
2022/10/03 20:04:50;;;;;;;;;;;21.80;94.60;;;;;;5036533;28;20015;-76
2022/10/03 20:07:18;;;;;;;;;;;21.80;94.70;;;;;;5036844;28;20008;-76
2022/10/03 20:09:55;;;;;;;;;;;21.80;94.80;;;;;;5036594;28;20008;-76
2022/10/03 20:12:25;;;;;;;;;;;21.80;94.90;;;;;;5037117;28;19926;-76
2022/10/03 20:14:52;;;;;;;;;;;21.80;94.90;;;;;;5036513;28;19929;-76
2022/10/03 20:17:20;;;;;;;;;;;21.80;95.00;;;;;;5036504;28;20031;-76
2022/10/03 20:19:53;;;;;;;;;;;21.80;95.00;;;;;;5036384;28;20011;-76
2022/10/03 20:22:20;;;;;;;;;;;21.80;95.10;;;;;;5036418;28;19959;-76
2022/10/03 20:24:48;;;;;;;;;;;21.80;95.10;;;;;;5036260;28;20007;-76
2022/10/03 20:27:21;;;;;;;;;;;21.80;95.20;;;;;;5036320;28;19972;-76
2022/10/03 20:29:55;;;;;;;;;;;21.80;95.20;;;;;;5035998;28;20312;-75
2022/10/03 20:32:22;;;;;;;;;;;21.80;95.20;;;;;;5035166;28;20491;-75
2022/10/03 20:34:51;;;;;;;;;;;21.80;95.60;;;;;;5036143;28;19976;-75
2022/10/03 20:37:26;;;;;;;;;;;21.80;95.30;;;;;;5036166;28;19925;-75
2022/10/03 20:39:56;;;;;;;;;;;21.80;95.40;;;;;;5035883;28;19935;-75
2022/10/03 20:42:25;;;;;;;;;;;21.80;95.40;;;;;;5036033;28;20015;-75
2022/10/03 20:45:01;;;;;;;;;;;21.80;95.40;;;;;;5035842;28;20420;-76
2022/10/03 20:47:43;;;;;;;;;;;21.80;95.50;;;;;;5035895;28;20007;-75
2022/10/03 20:50:15;;;;;;;;;;;21.80;95.60;;;;;;5035882;28;20021;-76
2022/10/03 20:52:41;;;;;;;;;;;21.80;95.70;;;;;;5035797;28;20017;-76
2022/10/03 20:55:18;;;;;;;;;;;21.80;95.70;;;;;;5035456;28;20004;-76
2022/10/03 20:57:47;;;;;;;;;;;21.80;95.80;;;;;;5035822;28;20012;-77
2022/10/03 21:00:18;;;;;;;;;;;21.80;95.80;;;;;;5035347;28;20373;-76
2022/10/03 21:02:48;;;;;;;;;;;21.80;95.80;;;;;;5035569;28;19932;-76
2022/10/03 21:05:19;;;;;;;;;;;21.80;95.90;;;;;;5035509;28;19932;-77
2022/10/03 21:07:48;;;;;;;;;;;21.80;95.90;;;;;;5035262;28;20464;-76
2022/10/03 21:10:22;;;;;;;;;;;21.80;95.90;;;;;;5035429;28;20008;-76
2022/10/03 21:12:51;;;;;;;;;;;21.80;96.00;;;;;;5035413;28;20024;-76
2022/10/03 21:15:26;;;;;;;;;;;21.80;96.40;;;;;;5035371;28;20015;-76
2022/10/03 21:17:55;;;;;;;;;;;21.80;96.10;;;;;;5035356;28;20008;-76
2022/10/03 21:20:23;;;;;;;;;;;21.80;96.10;;;;;;5034972;28;20448;-77
2022/10/03 21:22:51;;;;;;;;;;;21.80;96.10;;;;;;5035205;28;19925;-77
2022/10/03 21:25:20;;;;;;;;;;;21.70;96.10;;;;;;5035105;28;19957;-76
2022/10/03 21:27:49;;;;;;;;;;;21.80;96.20;;;;;;5034939;28;20019;-76
2022/10/03 21:30:17;;;;;;;;;;;21.80;96.20;;;;;;5035157;28;19972;-76
2022/10/03 21:32:59;;;;;;;;;;;21.80;96.20;;;;;;5034997;28;19947;-76
2022/10/03 21:35:27;;;;;;;;;;;21.80;96.20;;;;;;5035046;28;20015;-76
2022/10/03 21:38:05;;;;;;;;;;;21.80;96.20;;;;;;5034980;28;19925;-76
2022/10/03 21:40:37;;;;;;;;;;;21.80;96.20;;;;;;5034945;28;19925;-76
2022/10/03 21:43:12;;;;;;;;;;;21.80;96.20;;;;;;5034246;28;19925;-76
2022/10/03 21:45:42;;;;;;;;;;;21.80;96.20;;;;;;5034529;28;20023;-76
2022/10/03 21:48:14;;;;;;;;;;;21.80;96.20;;;;;;5034744;28;19925;-76
2022/10/03 21:50:44;;;;;;;;;;;21.80;96.20;;;;;;5034453;28;19984;-76
2022/10/03 21:53:18;;;;;;;;;;;21.80;96.20;;;;;;5035470;28;20292;-76
2022/10/03 21:55:53;;;;;;;;;;;21.80;96.20;;;;;;5034283;28;20013;-77
2022/10/03 21:58:30;;;;;;;;;;;21.80;96.20;;;;;;5034693;28;20012;-76
